Time;durP1;ratioP1;P1;durP2;ratioP2;P2;SDS_P1;SDS_P2;PMS_P1;PMS_P2;Temp;Humidity;BMP_temperature;BMP_pressure;BME280_temperature;BME280_humidity;BME280_pressure;Samples;Min_cycle;Max_cycle;Signal;HPM_P1;HPM_P2
2022/10/14 00:01:39;;;;;;;8.13;4.15;;;;;;;;;;6164790;23;20016;-82
2022/10/14 00:04:07;;;;;;;5.40;3.50;;;;;;;;;;6155932;23;20346;-83
2022/10/14 00:06:34;;;;;;;6.13;3.17;;;;;;;;;;6161324;23;20323;-83
2022/10/14 00:09:04;;;;;;;6.20;4.22;;;;;;;;;;6189380;23;20480;-83
2022/10/14 00:15:10;;;;;;;8.85;4.13;;;;;;;;;;6159884;23;20022;-83
2022/10/14 00:17:38;;;;;;;4.35;3.63;;;;;;;;;;6179374;23;20024;-83
2022/10/14 00:20:06;;;;;;;4.95;3.90;;;;;;;;;;6154210;23;20033;-83
2022/10/14 00:22:34;;;;;;;3.88;3.40;;;;;;;;;;6154103;23;20041;-83
2022/10/14 00:25:01;;;;;;;4.95;3.78;;;;;;;;;;6154614;23;20623;-83
2022/10/14 00:27:29;;;;;;;4.85;3.35;;;;;;;;;;6178360;23;20022;-83
2022/10/14 00:29:59;;;;;;;8.60;3.38;;;;;;;;;;6162941;23;20021;-82
2022/10/14 00:32:27;;;;;;;5.35;3.72;;;;;;;;;;6140029;23;20017;-82
2022/10/14 00:34:55;;;;;;;6.80;3.53;;;;;;;;;;6161110;23;20025;-83
2022/10/14 00:37:22;;;;;;;5.03;4.32;;;;;;;;;;6139237;23;20013;-83
2022/10/14 00:39:51;;;;;;;5.50;3.70;;;;;;;;;;6153793;23;20021;-83
2022/10/14 00:42:24;;;;;;;4.53;4.13;;;;;;;;;;6110045;23;20025;-83
2022/10/14 00:44:58;;;;;;;5.43;4.75;;;;;;;;;;6194321;23;20017;-82
2022/10/14 00:47:27;;;;;;;9.68;4.85;;;;;;;;;;6186735;23;20032;-83
2022/10/14 00:49:55;;;;;;;6.65;4.78;;;;;;;;;;6193054;23;20024;-82
2022/10/14 00:52:23;;;;;;;8.32;3.60;;;;;;;;;;6168974;23;20025;-83
2022/10/14 00:55:01;;;;;;;4.95;4.05;;;;;;;;;;6189077;23;20373;-83
2022/10/14 00:57:29;;;;;;;4.55;2.75;;;;;;;;;;6183661;23;20028;-83
2022/10/14 01:00:01;;;;;;;4.75;3.35;;;;;;;;;;6184660;23;20021;-82
2022/10/14 01:02:29;;;;;;;5.38;3.35;;;;;;;;;;6192108;23;20381;-83
2022/10/14 01:04:57;;;;;;;5.70;4.57;;;;;;;;;;6194362;23;20016;-82
2022/10/14 01:07:37;;;;;;;4.05;3.55;;;;;;;;;;6185515;23;20457;-83
2022/10/14 01:13:41;;;;;;;3.45;3.15;;;;;;;;;;6204112;23;20013;-83
2022/10/14 01:16:18;;;;;;;3.50;2.65;;;;;;;;;;6213361;23;20020;-83
2022/10/14 01:18:48;;;;;;;5.15;4.28;;;;;;;;;;6220332;23;20023;-83
2022/10/14 01:21:19;;;;;;;4.90;2.88;;;;;;;;;;6225075;23;20013;-83
2022/10/14 01:24:01;;;;;;;2.55;2.35;;;;;;;;;;6216498;23;20039;-83
2022/10/14 01:26:38;;;;;;;3.42;2.65;;;;;;;;;;6219881;23;20029;-82
2022/10/14 01:29:24;;;;;;;8.05;3.05;;;;;;;;;;6225247;23;20027;-83
2022/10/14 01:31:59;;;;;;;3.40;3.03;;;;;;;;;;6163957;23;20031;-82
2022/10/14 01:34:30;;;;;;;3.33;3.05;;;;;;;;;;6163543;23;20024;-82
2022/10/14 01:37:00;;;;;;;3.25;2.90;;;;;;;;;;6223423;23;20023;-83
2022/10/14 01:39:35;;;;;;;8.53;3.13;;;;;;;;;;6191447;23;20021;-83
2022/10/14 01:42:15;;;;;;;3.95;3.55;;;;;;;;;;6212346;23;20254;-83
2022/10/14 01:44:47;;;;;;;3.72;3.03;;;;;;;;;;6188542;23;20017;-83
2022/10/14 01:47:17;;;;;;;3.45;3.15;;;;;;;;;;6187643;23;20040;-83
2022/10/14 01:49:49;;;;;;;10.40;6.15;;;;;;;;;;6225597;23;20437;-83
2022/10/14 01:52:19;;;;;;;4.28;3.88;;;;;;;;;;6212327;23;20456;-82
2022/10/14 01:54:50;;;;;;;7.82;4.22;;;;;;;;;;6213268;23;20043;-83
2022/10/14 01:57:23;;;;;;;7.03;3.93;;;;;;;;;;6213471;23;20325;-83
2022/10/14 01:59:52;;;;;;;6.78;3.65;;;;;;;;;;6215072;23;20368;-83
2022/10/14 02:02:20;;;;;;;5.95;4.47;;;;;;;;;;6195338;23;20365;-83
2022/10/14 02:04:48;;;;;;;4.38;3.03;;;;;;;;;;6224350;23;20009;-83
2022/10/14 02:07:19;;;;;;;3.97;3.03;;;;;;;;;;6212036;23;20457;-83
2022/10/14 02:10:31;;;;;;;6.80;3.78;;;;;;;;;;6197934;23;20016;-83
2022/10/14 02:13:20;;;;;;;3.63;3.35;;;;;;;;;;6164036;23;20020;-83
2022/10/14 02:16:00;;;;;;;5.68;3.72;;;;;;;;;;6163114;23;20032;-82
2022/10/14 02:18:38;;;;;;;5.57;3.22;;;;;;;;;;6194715;23;20040;-82
2022/10/14 02:21:07;;;;;;;10.95;3.83;;;;;;;;;;6198452;23;20016;-82
2022/10/14 02:23:54;;;;;;;4.82;4.43;;;;;;;;;;6187138;23;20020;-83
2022/10/14 02:26:24;;;;;;;9.98;3.42;;;;;;;;;;6195049;23;20025;-83
2022/10/14 02:28:53;;;;;;;3.35;2.83;;;;;;;;;;6213475;23;20017;-83
2022/10/14 02:31:21;;;;;;;4.68;3.42;;;;;;;;;;6162843;23;20021;-83
2022/10/14 02:33:51;;;;;;;9.95;2.97;;;;;;;;;;6187409;23;20023;-83
2022/10/14 02:36:21;;;;;;;4.20;2.90;;;;;;;;;;6223540;23;20013;-83
2022/10/14 02:38:51;;;;;;;4.57;3.25;;;;;;;;;;6188142;23;20039;-83
2022/10/14 02:41:58;;;;;;;2.67;2.33;;;;;;;;;;6199177;23;20009;-83
2022/10/14 02:44:26;;;;;;;2.97;2.78;;;;;;;;;;6191781;23;20021;-84
2022/10/14 02:46:55;;;;;;;2.25;2.05;;;;;;;;;;6187844;23;20021;-84
2022/10/14 02:49:23;;;;;;;20.65;4.38;;;;;;;;;;6183084;23;20013;-84
2022/10/14 02:51:50;;;;;;;2.25;1.95;;;;;;;;;;6159221;23;20452;-84
2022/10/14 02:54:24;;;;;;;4.60;3.03;;;;;;;;;;6182607;23;20484;-84
2022/10/14 02:56:52;;;;;;;2.78;2.47;;;;;;;;;;6195084;23;20021;-83
2022/10/14 02:59:23;;;;;;;2.63;2.40;;;;;;;;;;6158513;23;20029;-84
2022/10/14 03:01:51;;;;;;;2.45;2.25;;;;;;;;;;6182393;23;20024;-84
2022/10/14 03:04:21;;;;;;;2.90;2.22;;;;;;;;;;6129819;23;20021;-84
2022/10/14 03:06:52;;;;;;;1.97;1.87;;;;;;;;;;6129841;23;20029;-83
2022/10/14 03:09:22;;;;;;;11.57;3.25;;;;;;;;;;6170953;23;20022;-83
2022/10/14 03:11:51;;;;;;;2.78;2.58;;;;;;;;;;6134744;23;20369;-83
2022/10/14 03:14:20;;;;;;;6.43;1.95;;;;;;;;;;6135079;23;20028;-84
2022/10/14 03:16:49;;;;;;;3.20;2.90;;;;;;;;;;6160052;23;20024;-83
2022/10/14 03:19:21;;;;;;;2.65;2.42;;;;;;;;;;6135007;23;20638;-84
2022/10/14 03:21:52;;;;;;;;;;;;;;;;;;6135374;23;20445;-84
2022/10/14 03:24:20;;;;;;;3.97;2.15;;;;;;;;;;6208695;23;19920;-84
2022/10/14 03:27:01;;;;;;;1.80;1.70;;;;;;;;;;6183269;23;20025;-82
2022/10/14 03:29:29;;;;;;;2.22;2.03;;;;;;;;;;6170641;23;20020;-83
2022/10/14 03:32:08;;;;;;;2.20;2.00;;;;;;;;;;6159363;23;20027;-84
2022/10/14 03:34:55;;;;;;;2.28;2.05;;;;;;;;;;6190160;23;20032;-83
2022/10/14 03:37:24;;;;;;;3.83;2.78;;;;;;;;;;6159342;23;20016;-83
2022/10/14 03:39:55;;;;;;;6.55;1.88;;;;;;;;;;6135425;23;20457;-83
2022/10/14 03:42:24;;;;;;;2.70;1.88;;;;;;;;;;6159475;23;20021;-83
2022/10/14 03:44:52;;;;;;;5.85;2.60;;;;;;;;;;6184831;23;20024;-82
2022/10/14 03:47:23;;;;;;;4.30;2.60;;;;;;;;;;6161954;23;20479;-83
2022/10/14 03:49:51;;;;;;;1.85;1.73;;;;;;;;;;6183998;23;20016;-83
2022/10/14 03:52:25;;;;;;;2.80;2.13;;;;;;;;;;6169703;23;20016;-83
2022/10/14 03:55:03;;;;;;;1.70;1.60;;;;;;;;;;6184223;23;20024;-83
2022/10/14 03:57:31;;;;;;;2.10;1.80;;;;;;;;;;6184465;23;20020;-82
2022/10/14 04:00:00;;;;;;;2.33;2.08;;;;;;;;;;6160507;23;20437;-83
2022/10/14 04:02:40;;;;;;;1.75;1.63;;;;;;;;;;6182968;23;20025;-83
2022/10/14 04:05:47;;;;;;;2.20;2.00;;;;;;;;;;6140133;23;20032;-83
2022/10/14 04:09:04;;;;;;;2.08;1.88;;;;;;;;;;6116053;23;20023;-84
2022/10/14 04:16:03;;;;;;;2.05;1.85;;;;;;;;;;6184044;23;20026;-84
2022/10/14 04:18:38;;;;;;;2.05;1.85;;;;;;;;;;6183756;23;20360;-84
2022/10/14 04:21:10;;;;;;;2.30;1.88;;;;;;;;;;6180625;23;20040;-84
2022/10/14 04:23:39;;;;;;;15.25;4.40;;;;;;;;;;6170793;23;20018;-84
2022/10/14 04:26:14;;;;;;;2.97;1.88;;;;;;;;;;6121656;23;20025;-84
2022/10/14 04:28:44;;;;;;;3.47;3.20;;;;;;;;;;6184236;23;20341;-84
2022/10/14 04:31:27;;;;;;;3.70;2.17;;;;;;;;;;6134424;23;20325;-84
2022/10/14 04:34:00;;;;;;;3.40;3.05;;;;;;;;;;6167540;23;20508;-84
2022/10/14 04:36:33;;;;;;;5.88;2.55;;;;;;;;;;6168892;23;20016;-84
2022/10/14 04:39:03;;;;;;;5.40;2.40;;;;;;;;;;6188434;23;20025;-84
2022/10/14 04:41:31;;;;;;;2.45;2.25;;;;;;;;;;6169462;23;20013;-85
2022/10/14 04:44:01;;;;;;;5.38;2.53;;;;;;;;;;6158982;23;20025;-84
2022/10/14 04:46:38;;;;;;;2.75;2.17;;;;;;;;;;6133504;23;20349;-84
2022/10/14 04:49:08;;;;;;;3.55;2.33;;;;;;;;;;6159937;23;20013;-84
2022/10/14 04:51:40;;;;;;;2.33;2.13;;;;;;;;;;6187348;23;20592;-84
2022/10/14 04:54:26;;;;;;;2.80;2.25;;;;;;;;;;6158645;23;20024;-84
2022/10/14 04:57:09;;;;;;;3.22;2.05;;;;;;;;;;6169749;23;20009;-86
2022/10/14 05:00:17;;;;;;;3.20;2.88;;;;;;;;;;6161451;23;20017;-89
2022/10/14 05:08:12;;;;;;;2.08;1.88;;;;;;;;;;6152589;23;20453;-85
2022/10/14 06:00:18;;;;;;;4.07;3.30;;;;;;;;;;6181780;23;20025;-88
2022/10/14 06:04:10;;;;;;;4.75;2.90;;;;;;;;;;6058152;23;20027;-86
2022/10/14 06:07:14;;;;;;;11.02;5.35;;;;;;;;;;6041764;23;20347;-87
2022/10/14 06:14:29;;;;;;;6.38;3.20;;;;;;;;;;5953855;23;20016;-86
2022/10/14 06:33:08;;;;;;;4.15;3.17;;;;;;;;;;6165487;23;20021;-87
2022/10/14 09:16:48;;;;;;;2.72;1.75;;;;;;;;;;6182256;23;20036;-86
2022/10/14 09:19:51;;;;;;;2.45;1.60;;;;;;;;;;6161101;23;20013;-79
2022/10/14 09:22:19;;;;;;;12.25;1.75;;;;;;;;;;6182269;23;20024;-79
2022/10/14 09:24:52;;;;;;;2.42;1.42;;;;;;;;;;6194852;23;20009;-84
2022/10/14 09:27:37;;;;;;;2.33;1.52;;;;;;;;;;6140780;23;20032;-83
2022/10/14 09:30:13;;;;;;;1.73;1.63;;;;;;;;;;6190797;23;20017;-81
2022/10/14 09:32:43;;;;;;;3.33;2.40;;;;;;;;;;6193522;23;20032;-82
2022/10/14 09:35:27;;;;;;;2.22;1.98;;;;;;;;;;6154008;23;20029;-82
2022/10/14 09:38:36;;;;;;;14.68;2.45;;;;;;;;;;6173140;23;20343;-82
2022/10/14 09:41:39;;;;;;;1.90;1.65;;;;;;;;;;6184461;23;20042;-82
2022/10/14 09:44:27;;;;;;;1.13;1.02;;;;;;;;;;6138801;23;20024;-83
2022/10/14 09:47:03;;;;;;;1.90;1.35;;;;;;;;;;6187550;23;20043;-82
2022/10/14 09:49:37;;;;;;;3.63;1.50;;;;;;;;;;6222864;23;20017;-81
2022/10/14 09:52:06;;;;;;;2.75;1.70;;;;;;;;;;6211683;23;20055;-82
2022/10/14 09:54:51;;;;;;;1.33;1.23;;;;;;;;;;6153393;23;20032;-81
2022/10/14 09:57:21;;;;;;;1.33;1.23;;;;;;;;;;6163374;23;20017;-82
2022/10/14 10:00:10;;;;;;;2.50;1.17;;;;;;;;;;6213301;23;20025;-83
2022/10/14 10:02:42;;;;;;;1.45;1.23;;;;;;;;;;6161641;23;20021;-82
2022/10/14 10:05:28;;;;;;;2.97;1.63;;;;;;;;;;6186212;23;20064;-83
2022/10/14 10:30:46;;;;;;;1.40;1.10;;;;;;;;;;6171063;23;20675;-88
2022/10/14 10:33:17;;;;;;;1.30;1.20;;;;;;;;;;6176652;23;20016;-84
2022/10/14 10:35:58;;;;;;;;;;;;;;;;;;;;;
2022/10/14 10:39:17;;;;;;;4.07;1.45;;;;;;;;;;6100757;23;20325;-86
2022/10/14 10:41:48;;;;;;;;;;;;;;;;;;6079558;23;20350;-84
2022/10/14 10:44:39;;;;;;;1.05;0.93;;;;;;;;;;6132147;23;19916;-89
2022/10/14 10:47:07;;;;;;;;;;;;;;;;;;6189258;23;20028;-85
2022/10/14 10:49:40;;;;;;;2.67;1.17;;;;;;;;;;6190413;23;19923;-86
2022/10/14 10:52:15;;;;;;;1.63;1.52;;;;;;;;;;6163886;23;20352;-84
2022/10/14 10:55:07;;;;;;;1.35;1.25;;;;;;;;;;6220386;23;20644;-82
2022/10/14 10:57:49;;;;;;;1.25;1.15;;;;;;;;;;6189805;23;20463;-84
2022/10/14 11:35:50;;;;;;;0.73;0.73;;;;;;;;;;6167649;23;20058;-88
2022/10/14 11:43:44;;;;;;;2.35;0.93;;;;;;;;;;6140548;23;20021;-90
2022/10/14 11:47:15;;;;;;;;;;;;;;;;;;;;;
2022/10/14 12:03:49;;;;;;;1.67;1.58;;;;;;;;;;6178022;23;20333;-90
2022/10/14 12:06:30;;;;;;;6.00;1.00;;;;;;;;;;6160179;23;20025;-89
2022/10/14 12:12:11;;;;;;;3.05;1.20;;;;;;;;;;6135703;23;20013;-91
2022/10/14 12:36:59;;;;;;;6.32;0.65;;;;;;;;;;6173891;23;20029;-90
2022/10/14 12:40:25;;;;;;;1.02;0.95;;;;;;;;;;6159133;23;20337;-90
2022/10/14 12:43:44;;;;;;;1.05;0.95;;;;;;;;;;6156174;23;20036;-89
2022/10/14 12:51:11;;;;;;;1.60;1.50;;;;;;;;;;6146728;23;20005;-89
2022/10/14 12:55:17;;;;;;;;;;;;;;;;;;;;;
2022/10/14 12:59:21;;;;;;;1.00;0.90;;;;;;;;;;6123805;23;20018;-89
2022/10/14 13:06:34;;;;;;;1.55;1.42;;;;;;;;;;6091379;23;20027;-89
2022/10/14 13:37:46;;;;;;;2.38;0.90;;;;;;;;;;6163523;23;20025;-89
2022/10/14 13:41:15;;;;;;;0.77;0.77;;;;;;;;;;6061011;23;20032;-90
2022/10/14 13:43:46;;;;;;;0.70;0.70;;;;;;;;;;6090619;23;20022;-90
2022/10/14 15:01:30;;;;;;;1.20;1.10;;;;;;;;;;6210290;23;20035;-87
2022/10/14 15:51:04;;;;;;;1.05;1.05;;;;;;;;;;6184928;23;20025;-88
2022/10/14 15:54:39;;;;;;;2.47;0.80;;;;;;;;;;6045328;23;20017;-88
2022/10/14 15:58:33;;;;;;;9.23;2.45;;;;;;;;;;6059711;23;20026;-88
2022/10/14 16:01:49;;;;;;;1.45;0.82;;;;;;;;;;5964371;24;20020;-88
2022/10/14 16:04:45;;;;;;;1.02;0.95;;;;;;;;;;5916415;24;20174;-87
2022/10/14 16:08:23;;;;;;;;;;;;;;;;;;;;;
2022/10/14 16:11:30;;;;;;;3.50;0.82;;;;;;;;;;6117289;23;20036;-88
2022/10/14 16:14:33;;;;;;;1.58;1.30;;;;;;;;;;6122414;23;20013;-87
2022/10/14 16:51:26;;;;;;;5.00;0.80;;;;;;;;;;6124892;23;20022;-84
2022/10/14 16:54:36;;;;;;;1.60;1.20;;;;;;;;;;6072168;23;20032;-85
2022/10/14 17:03:00;;;;;;;7.85;1.33;;;;;;;;;;6026296;23;20033;-84
2022/10/14 17:06:15;;;;;;;3.88;1.15;;;;;;;;;;6144512;23;20016;-84
2022/10/14 17:09:46;;;;;;;1.02;0.93;;;;;;;;;;6180705;23;20020;-84
2022/10/14 17:13:39;;;;;;;3.17;1.63;;;;;;;;;;6139748;23;20027;-84
2022/10/14 17:16:51;;;;;;;2.78;1.02;;;;;;;;;;6182494;23;20351;-85
2022/10/14 17:24:10;;;;;;;1.63;1.52;;;;;;;;;;6137224;23;20025;-85
2022/10/14 17:36:21;;;;;;;2.42;2.22;;;;;;;;;;5922000;24;20031;-84
2022/10/14 17:44:39;;;;;;;2.17;1.20;;;;;;;;;;5907406;24;20020;-85
2022/10/14 21:41:34;;;;;;;4.97;3.67;;;;;;;;;;6154204;23;20025;-86
2022/10/14 21:54:53;;;;;;;3.47;3.17;;;;;;;;;;5881968;24;20021;-86
2022/10/14 22:04:01;;;;;;;3.80;3.47;;;;;;;;;;5798973;24;20027;-86
2022/10/14 22:13:03;;;;;;;;;;;;;;;;;;;;;
2022/10/14 22:17:43;;;;;;;;;;;;;;;;;;;;;
2022/10/14 22:59:28;;;;;;;;;;;;;;;;;;6027888;23;20366;-86
2022/10/14 23:07:17;;;;;;;;;;;;;;;;;;5897113;24;20029;-86
2022/10/14 23:25:18;;;;;;;;;;;;;;;;;;;;;
2022/10/14 23:30:01;;;;;;;;;;;;;;;;;;;;;
2022/10/14 23:47:04;;;;;;;3.08;2.40;;;;;;;;;;6062387;23;20018;-86
2022/10/14 23:49:57;;;;;;;;;;;;;;;;;;;;;
2022/10/14 23:56:45;;;;;;;3.08;2.78;;;;;;;;;;6056432;23;20545;-87
